Time;durP1;ratioP1;P1;durP2;ratioP2;P2;SDS_P1;SDS_P2;PMS_P1;PMS_P2;Temp;Humidity;BMP_temperature;BMP_pressure;BME280_temperature;BME280_humidity;BME280_pressure;Samples;Min_cycle;Max_cycle;Signal;HPM_P1;HPM_P2
2021/04/27 00:02:20;;;;;;;1.85;0.60;;;20.00;37.00;;;;;;5034898;28;20116;-57
2021/04/27 00:04:45;;;;;;;2.65;0.90;;;20.00;37.00;;;;;;5034601;28;20079;-59
2021/04/27 00:07:11;;;;;;;3.47;0.90;;;20.00;37.00;;;;;;5038809;28;20340;-58
2021/04/27 00:09:38;;;;;;;1.13;0.60;;;20.00;37.00;;;;;;5038993;28;20086;-56
2021/04/27 00:12:04;;;;;;;3.03;0.98;;;20.00;37.00;;;;;;5038971;28;20026;-56
2021/04/27 00:14:30;;;;;;;1.38;0.68;;;20.00;37.00;;;;;;5038610;28;20025;-56
2021/04/27 00:16:56;;;;;;;1.10;0.70;;;20.00;37.00;;;;;;5038630;28;20041;-58
2021/04/27 00:19:21;;;;;;;1.35;0.50;;;20.00;37.00;;;;;;5038649;28;20026;-54
2021/04/27 00:21:47;;;;;;;2.88;0.90;;;20.00;36.90;;;;;;5038566;28;20032;-54
2021/04/27 00:24:13;;;;;;;1.55;0.73;;;19.90;36.90;;;;;;5039071;28;20433;-56
2021/04/27 00:26:38;;;;;;;0.52;0.50;;;19.90;36.90;;;;;;5038473;28;20029;-57
2021/04/27 00:29:04;;;;;;;1.17;0.75;;;20.00;36.90;;;;;;5021132;28;20049;-56
2021/04/27 00:31:30;;;;;;;1.15;0.88;;;20.00;36.90;;;;;;5038013;28;20029;-55
2021/04/27 00:33:56;;;;;;;1.10;0.57;;;19.90;36.80;;;;;;5038479;28;20105;-56
2021/04/27 00:36:23;;;;;;;1.08;0.80;;;19.90;36.80;;;;;;5038423;28;20034;-56
2021/04/27 00:38:48;;;;;;;2.75;1.08;;;19.90;36.80;;;;;;5038133;28;20075;-56
2021/04/27 00:41:14;;;;;;;1.48;0.70;;;19.90;36.70;;;;;;5038137;28;20029;-53
2021/04/27 00:43:40;;;;;;;1.35;0.80;;;19.90;36.70;;;;;;5038562;28;20025;-54
2021/04/27 00:46:07;;;;;;;2.30;0.82;;;19.90;36.80;;;;;;5038215;28;20025;-54
2021/04/27 00:48:33;;;;;;;4.93;1.10;;;19.90;36.70;;;;;;5038129;28;20025;-57
2021/04/27 00:50:59;;;;;;;1.20;0.60;;;19.90;36.70;;;;;;5037927;28;20013;-51
2021/04/27 00:53:26;;;;;;;1.10;0.63;;;19.90;36.70;;;;;;5038420;28;20026;-55
2021/04/27 00:55:51;;;;;;;1.52;0.60;;;19.80;36.70;;;;;;5037916;28;20048;-57
2021/04/27 00:58:17;;;;;;;1.58;0.80;;;19.80;36.70;;;;;;5038209;28;20364;-55
2021/04/27 01:00:43;;;;;;;2.00;0.70;;;19.80;36.70;;;;;;5037921;28;20021;-56
2021/04/27 01:03:10;;;;;;;1.10;0.77;;;19.80;36.70;;;;;;5037591;28;20029;-52
2021/04/27 01:05:39;;;;;;;1.05;0.65;;;19.80;36.60;;;;;;5037692;28;20021;-55
2021/04/27 01:08:20;;;;;;;2.00;0.73;;;19.80;36.70;;;;;;5038048;28;20029;-59
2021/04/27 01:11:05;;;;;;;0.95;0.70;;;19.80;36.60;;;;;;5037644;28;20021;-56
2021/04/27 01:13:43;;;;;;;0.98;0.60;;;19.80;36.60;;;;;;5037679;28;20084;-53
2021/04/27 01:16:10;;;;;;;1.95;0.80;;;19.80;36.70;;;;;;5037038;28;20044;-57
2021/04/27 01:18:42;;;;;;;0.85;0.60;;;19.80;36.70;;;;;;5036753;28;20017;-55
2021/04/27 01:21:08;;;;;;;0.80;0.50;;;19.80;36.70;;;;;;5037752;28;20017;-57
2021/04/27 01:23:59;;;;;;;3.15;0.80;;;19.70;36.70;;;;;;5037573;28;20032;-58
2021/04/27 01:26:48;;;;;;;1.67;0.77;;;19.70;36.60;;;;;;5037304;28;20032;-56
2021/04/27 01:29:16;;;;;;;0.82;0.80;;;19.70;36.60;;;;;;5037770;28;20116;-58
2021/04/27 01:31:43;;;;;;;0.90;0.80;;;19.70;36.60;;;;;;5019775;28;20120;-55
2021/04/27 01:34:11;;;;;;;1.52;0.70;;;19.70;36.70;;;;;;5037487;28;20351;-54
2021/04/27 01:36:36;;;;;;;1.02;0.80;;;19.60;36.60;;;;;;5037141;28;20444;-57
2021/04/27 01:39:05;;;;;;;1.00;0.70;;;19.70;36.70;;;;;;5037512;28;20036;-58
2021/04/27 01:41:31;;;;;;;1.33;0.70;;;19.70;36.70;;;;;;5037371;28;20033;-58
2021/04/27 01:43:58;;;;;;;0.93;0.77;;;19.70;36.70;;;;;;5036823;28;20022;-55
2021/04/27 01:46:24;;;;;;;2.38;0.70;;;19.60;36.60;;;;;;5037425;28;20022;-56
2021/04/27 01:48:52;;;;;;;0.88;0.68;;;19.60;36.70;;;;;;5036930;28;20047;-54
2021/04/27 01:51:17;;;;;;;2.03;0.90;;;19.60;36.70;;;;;;5036800;28;20037;-52
2021/04/27 01:53:45;;;;;;;1.15;0.88;;;19.60;36.60;;;;;;5037191;28;20099;-56
2021/04/27 01:56:10;;;;;;;1.10;0.60;;;19.60;36.70;;;;;;5037139;28;20041;-55
2021/04/27 01:58:36;;;;;;;1.10;0.73;;;19.60;36.60;;;;;;5036564;28;20094;-56
2021/04/27 02:01:03;;;;;;;0.75;0.70;;;19.60;36.60;;;;;;5036448;28;20036;-57
2021/04/27 02:03:28;;;;;;;1.60;1.00;;;19.60;36.60;;;;;;5036320;28;20021;-56
2021/04/27 02:05:54;;;;;;;1.42;0.73;;;19.60;36.70;;;;;;5036628;28;20036;-56
2021/04/27 02:08:20;;;;;;;0.93;0.70;;;19.60;36.60;;;;;;5036631;28;20021;-56
2021/04/27 02:10:46;;;;;;;4.72;0.98;;;19.60;36.60;;;;;;5036696;28;20036;-53
2021/04/27 02:13:17;;;;;;;0.68;0.50;;;19.60;36.60;;;;;;5036111;28;20021;-54
2021/04/27 02:15:45;;;;;;;0.90;0.57;;;19.50;36.50;;;;;;5036437;28;20340;-56
2021/04/27 02:18:49;;;;;;;1.08;0.70;;;19.50;36.50;;;;;;5036461;28;20391;-53
2021/04/27 02:21:16;;;;;;;;;;;19.50;36.50;;;;;;5021795;28;20107;-56
2021/04/27 02:23:42;;;;;;;1.58;0.70;;;19.50;36.50;;;;;;5036748;28;20324;-56
2021/04/27 02:26:11;;;;;;;0.82;0.65;;;19.40;36.50;;;;;;5035843;28;20029;-55
2021/04/27 02:28:38;;;;;;;0.98;0.70;;;19.50;36.60;;;;;;5035457;28;20045;-55
2021/04/27 02:31:03;;;;;;;0.65;0.60;;;19.50;36.60;;;;;;5035917;28;20037;-55
2021/04/27 02:33:29;;;;;;;1.48;0.75;;;19.50;36.60;;;;;;5036686;28;20029;-56
2021/04/27 02:35:55;;;;;;;0.65;0.50;;;19.50;36.70;;;;;;5036010;28;20353;-58
2021/04/27 02:38:22;;;;;;;0.60;0.52;;;19.50;36.70;;;;;;5036210;28;20097;-53
2021/04/27 02:40:55;;;;;;;1.45;0.75;;;19.50;36.60;;;;;;5036085;28;20029;-57
2021/04/27 02:43:21;;;;;;;1.30;0.75;;;19.50;36.60;;;;;;5035765;28;20032;-56
2021/04/27 02:45:47;;;;;;;2.60;0.90;;;19.40;36.50;;;;;;5035913;28;20049;-54
2021/04/27 02:48:19;;;;;;;1.38;0.70;;;19.40;36.50;;;;;;5035827;28;20349;-57
2021/04/27 02:50:48;;;;;;;1.00;0.60;;;19.50;36.60;;;;;;5035780;28;20022;-57
2021/04/27 02:53:15;;;;;;;1.42;0.68;;;19.40;36.50;;;;;;5035743;28;20021;-53
2021/04/27 02:55:41;;;;;;;1.83;0.90;;;19.40;36.50;;;;;;5035671;28;20029;-59
2021/04/27 02:58:07;;;;;;;1.23;0.80;;;19.40;36.50;;;;;;5036047;28;20072;-56
2021/04/27 03:00:33;;;;;;;0.85;0.70;;;19.40;36.60;;;;;;5035655;28;20040;-54
2021/04/27 03:02:58;;;;;;;1.42;0.80;;;19.40;36.60;;;;;;5035654;28;20026;-54
2021/04/27 03:05:24;;;;;;;1.05;0.70;;;19.40;36.60;;;;;;5035314;28;20033;-55
2021/04/27 03:07:49;;;;;;;3.85;1.02;;;19.30;36.50;;;;;;5035603;28;20105;-57
2021/04/27 03:10:15;;;;;;;1.70;0.60;;;19.40;36.50;;;;;;5035657;28;20439;-56
2021/04/27 03:12:41;;;;;;;2.05;0.80;;;19.40;36.60;;;;;;5017840;28;20059;-51
2021/04/27 03:15:08;;;;;;;1.75;0.82;;;19.40;36.60;;;;;;5035070;28;20432;-54
2021/04/27 03:17:34;;;;;;;1.35;0.68;;;19.30;36.50;;;;;;5035675;28;20021;-57
2021/04/27 03:20:00;;;;;;;1.65;0.75;;;19.30;36.50;;;;;;5035719;28;20029;-53
2021/04/27 03:22:26;;;;;;;1.23;0.60;;;19.30;36.50;;;;;;5034899;28;20028;-57
2021/04/27 03:24:51;;;;;;;1.10;0.80;;;19.30;36.50;;;;;;5034758;28;20025;-57
2021/04/27 03:27:17;;;;;;;1.33;0.95;;;19.40;36.50;;;;;;5035139;28;20026;-54
2021/04/27 03:29:42;;;;;;;1.83;0.82;;;19.30;36.50;;;;;;5035249;28;20462;-54
2021/04/27 03:32:08;;;;;;;2.15;0.75;;;19.30;36.50;;;;;;5035057;28;20447;-55
2021/04/27 03:34:34;;;;;;;2.55;0.50;;;19.30;36.50;;;;;;5034992;28;20084;-52
2021/04/27 03:36:59;;;;;;;1.52;0.68;;;19.30;36.60;;;;;;5035295;28;20356;-54
2021/04/27 03:39:25;;;;;;;1.95;0.70;;;19.30;36.70;;;;;;5034503;28;20021;-56
2021/04/27 03:41:50;;;;;;;2.28;1.05;;;19.30;36.80;;;;;;5034589;28;20034;-54
2021/04/27 03:44:16;;;;;;;3.45;0.70;;;19.20;36.80;;;;;;5034973;28;20463;-53
2021/04/27 03:46:42;;;;;;;1.42;0.70;;;19.20;36.80;;;;;;5034906;28;20025;-52
2021/04/27 03:49:07;;;;;;;3.22;0.88;;;19.20;36.80;;;;;;5034839;28;20028;-52
2021/04/27 03:51:33;;;;;;;0.93;0.63;;;19.20;36.80;;;;;;5034815;28;20030;-52
2021/04/27 03:53:58;;;;;;;2.10;1.00;;;19.20;36.80;;;;;;5035298;28;20107;-53
2021/04/27 03:56:24;;;;;;;4.47;1.00;;;19.20;36.80;;;;;;5034511;28;20044;-57
2021/04/27 03:58:49;;;;;;;1.17;0.90;;;19.20;36.80;;;;;;5017595;28;20480;-54
2021/04/27 04:01:15;;;;;;;1.25;0.82;;;19.20;36.80;;;;;;5034748;28;20025;-50
2021/04/27 04:03:41;;;;;;;1.27;0.70;;;19.20;36.80;;;;;;5034619;28;20030;-51
2021/04/27 04:06:06;;;;;;;1.27;0.88;;;19.20;36.80;;;;;;5034380;28;20060;-55
2021/04/27 04:08:33;;;;;;;1.42;0.90;;;19.20;36.80;;;;;;5034464;28;20041;-54
2021/04/27 04:10:58;;;;;;;4.65;1.00;;;19.20;36.80;;;;;;5034530;28;20036;-55
2021/04/27 04:13:24;;;;;;;1.83;0.90;;;19.20;36.80;;;;;;5034557;28;20030;-57
2021/04/27 04:15:50;;;;;;;2.25;1.05;;;19.20;36.80;;;;;;5034474;28;20445;-53
2021/04/27 04:18:15;;;;;;;1.10;0.60;;;19.20;36.80;;;;;;5034907;28;20034;-56
2021/04/27 04:20:41;;;;;;;1.50;0.70;;;19.10;36.70;;;;;;5034309;28;20425;-52
2021/04/27 04:23:06;;;;;;;0.90;0.80;;;19.20;36.80;;;;;;5034674;28;20036;-52
2021/04/27 04:25:32;;;;;;;1.55;0.98;;;19.10;36.70;;;;;;5034370;28;20029;-56
2021/04/27 04:27:58;;;;;;;0.80;0.80;;;19.10;36.70;;;;;;5034554;28;20352;-56
2021/04/27 04:30:25;;;;;;;1.60;0.93;;;19.10;36.70;;;;;;5033995;28;20162;-57
2021/04/27 04:32:51;;;;;;;1.15;0.50;;;19.10;36.70;;;;;;5034930;28;20048;-54
2021/04/27 04:35:19;;;;;;;1.95;0.68;;;19.10;36.70;;;;;;5034128;28;20080;-53
2021/04/27 04:37:45;;;;;;;1.85;0.90;;;19.10;36.70;;;;;;5034460;28;20026;-54
2021/04/27 04:40:12;;;;;;;2.60;0.82;;;19.10;36.70;;;;;;5034414;28;20053;-54
2021/04/27 04:42:38;;;;;;;1.00;0.70;;;19.10;36.70;;;;;;5034539;28;20445;-55
2021/04/27 04:45:05;;;;;;;1.30;0.93;;;19.10;36.70;;;;;;5034860;28;20056;-55
2021/04/27 04:47:30;;;;;;;1.55;0.80;;;19.10;36.70;;;;;;5034043;28;20375;-54
2021/04/27 04:49:56;;;;;;;1.60;0.82;;;19.10;36.70;;;;;;5034142;28;20118;-53
2021/04/27 04:52:21;;;;;;;2.45;0.80;;;19.10;36.70;;;;;;5036890;28;20387;-53
2021/04/27 04:54:47;;;;;;;1.50;0.98;;;19.00;36.70;;;;;;5037466;28;20026;-54
2021/04/27 04:57:12;;;;;;;1.60;0.90;;;19.00;36.70;;;;;;5037725;28;20021;-52
2021/04/27 04:59:38;;;;;;;1.75;0.90;;;19.00;36.70;;;;;;5038021;28;20026;-55
2021/04/27 05:02:04;;;;;;;1.02;0.70;;;19.00;36.70;;;;;;5037790;28;20420;-54
2021/04/27 05:04:29;;;;;;;2.20;0.90;;;19.00;36.70;;;;;;5037709;28;20025;-54
2021/04/27 05:07:00;;;;;;;1.35;0.88;;;19.00;36.70;;;;;;5037760;28;20101;-55
2021/04/27 05:09:25;;;;;;;2.05;0.90;;;19.00;36.70;;;;;;5037341;28;20014;-55
2021/04/27 05:11:51;;;;;;;1.83;1.00;;;19.00;36.70;;;;;;5037648;28;20036;-56
2021/04/27 05:14:16;;;;;;;1.75;0.90;;;19.00;36.80;;;;;;5037199;28;20022;-55
2021/04/27 05:16:42;;;;;;;8.10;1.20;;;19.00;37.00;;;;;;5037493;28;20102;-56
2021/04/27 05:19:08;;;;;;;1.88;0.70;;;19.00;37.50;;;;;;5037572;28;20036;-56
2021/04/27 05:21:33;;;;;;;2.50;1.20;;;19.00;38.20;;;;;;5037296;28;20033;-49
2021/04/27 05:24:00;;;;;;;3.15;1.00;;;19.00;37.70;;;;;;5037495;28;20037;-63
2021/04/27 05:26:25;;;;;;;0.90;0.60;;;19.00;37.90;;;;;;5037509;28;20029;-56
2021/04/27 05:28:51;;;;;;;4.72;0.70;;;19.00;37.80;;;;;;5018398;28;20060;-54
2021/04/27 05:31:16;;;;;;;1.25;0.60;;;19.10;37.90;;;;;;5037456;28;20033;-58
2021/04/27 05:33:42;;;;;;;2.00;0.55;;;19.10;37.80;;;;;;5036914;28;20041;-57
2021/04/27 05:36:07;;;;;;;1.83;0.68;;;19.20;38.00;;;;;;5037214;28;20042;-55
2021/04/27 05:38:34;;;;;;;5.18;0.90;;;19.20;38.20;;;;;;5036747;28;20022;-54
2021/04/27 05:41:00;;;;;;;2.33;0.93;;;19.20;38.30;;;;;;5037618;28;20033;-55
2021/04/27 05:43:25;;;;;;;4.05;1.23;;;19.30;38.40;;;;;;5036909;28;20479;-53
2021/04/27 05:45:51;;;;;;;4.78;1.15;;;19.30;38.40;;;;;;5036608;28;20079;-50
2021/04/27 05:48:16;;;;;;;2.92;0.70;;;19.40;38.40;;;;;;5037352;28;20325;-52
2021/04/27 05:50:42;;;;;;;3.15;0.93;;;19.40;38.30;;;;;;5036914;28;20104;-50
2021/04/27 05:53:07;;;;;;;4.88;0.80;;;19.50;38.50;;;;;;5036980;28;20030;-53
2021/04/27 05:55:33;;;;;;;6.82;1.02;;;19.50;38.30;;;;;;5036413;28;20091;-50
2021/04/27 05:57:59;;;;;;;4.72;0.98;;;19.50;38.30;;;;;;5036391;28;20415;-51
2021/04/27 06:00:25;;;;;;;3.15;1.00;;;19.60;38.70;;;;;;5036534;28;20025;-52
2021/04/27 06:02:51;;;;;;;3.45;1.00;;;19.60;38.80;;;;;;5035960;28;20188;-51
2021/04/27 06:05:17;;;;;;;4.35;0.82;;;19.70;39.40;;;;;;5036705;28;20021;-57
2021/04/27 06:07:43;;;;;;;2.03;1.17;;;19.70;38.70;;;;;;5036829;28;20396;-56
2021/04/27 06:10:09;;;;;;;2.10;0.85;;;19.70;38.70;;;;;;5036556;28;20060;-55
2021/04/27 06:12:35;;;;;;;4.72;1.08;;;19.80;38.70;;;;;;5036464;28;20021;-58
2021/04/27 06:15:00;;;;;;;5.88;0.68;;;19.80;38.60;;;;;;5036219;28;20041;-53
2021/04/27 06:17:26;;;;;;;1.38;0.80;;;19.80;38.60;;;;;;5018988;28;20043;-56
2021/04/27 06:19:52;;;;;;;3.47;1.17;;;19.90;38.60;;;;;;5036294;28;20091;-55
2021/04/27 06:22:18;;;;;;;1.50;0.85;;;19.80;38.50;;;;;;5019140;28;20049;-55
2021/04/27 06:24:43;;;;;;;0.75;0.75;;;19.90;38.60;;;;;;5036191;28;20037;-54
2021/04/27 06:27:09;;;;;;;6.75;1.17;;;19.90;38.60;;;;;;5036228;28;20037;-53
2021/04/27 06:29:35;;;;;;;2.53;1.08;;;20.00;38.60;;;;;;5035823;28;20046;-55
2021/04/27 06:32:00;;;;;;;5.97;1.40;;;20.00;38.60;;;;;;5035903;28;20097;-56
2021/04/27 06:34:26;;;;;;;5.53;1.45;;;20.00;38.60;;;;;;5036188;28;20029;-51
2021/04/27 06:36:52;;;;;;;10.95;2.15;;;20.00;38.70;;;;;;5035928;28;20059;-54
2021/04/27 06:39:17;;;;;;;3.50;1.00;;;20.10;38.80;;;;;;5035643;28;20079;-54
2021/04/27 06:41:43;;;;;;;4.03;0.93;;;20.10;38.70;;;;;;5035923;28;20087;-58
2021/04/27 06:44:09;;;;;;;3.53;1.20;;;20.10;38.60;;;;;;5035542;28;20040;-54
2021/04/27 06:46:35;;;;;;;2.00;0.70;;;20.10;38.70;;;;;;5035514;28;20152;-57
2021/04/27 06:49:00;;;;;;;3.20;1.27;;;20.20;38.70;;;;;;5035795;28;20113;-49
2021/04/27 06:51:26;;;;;;;5.07;1.17;;;20.20;38.70;;;;;;5035830;28;20191;-56
2021/04/27 06:53:52;;;;;;;2.85;0.98;;;20.30;38.80;;;;;;5035759;28;20495;-55
2021/04/27 06:56:17;;;;;;;7.00;0.90;;;20.30;38.70;;;;;;5035795;28;20044;-52
2021/04/27 06:58:43;;;;;;;1.50;0.60;;;20.30;38.70;;;;;;5035764;28;20026;-53
2021/04/27 07:01:09;;;;;;;1.38;0.68;;;20.30;38.70;;;;;;5035146;28;20028;-50
2021/04/27 07:03:35;;;;;;;3.25;1.05;;;20.30;38.70;;;;;;5035535;28;20026;-52
2021/04/27 07:06:01;;;;;;;5.20;1.27;;;20.30;38.80;;;;;;5035210;28;20029;-54
2021/04/27 07:08:27;;;;;;;3.20;1.15;;;20.30;38.70;;;;;;5035706;28;20053;-53
2021/04/27 07:10:53;;;;;;;1.27;0.90;;;20.40;38.90;;;;;;5018048;28;20074;-52
2021/04/27 07:13:19;;;;;;;2.38;0.80;;;20.40;38.90;;;;;;5035316;28;20021;-63
2021/04/27 07:15:45;;;;;;;2.70;1.20;;;20.40;38.90;;;;;;5035218;28;20440;-57
2021/04/27 07:18:11;;;;;;;1.88;0.50;;;20.40;38.90;;;;;;5034954;28;20057;-56
2021/04/27 07:20:37;;;;;;;0.88;0.65;;;20.40;38.80;;;;;;5035292;28;20017;-52
2021/04/27 07:23:03;;;;;;;3.05;0.85;;;20.50;38.80;;;;;;5035471;28;20029;-52
2021/04/27 07:25:29;;;;;;;1.25;0.65;;;20.50;38.80;;;;;;5035020;28;20025;-52
2021/04/27 07:27:54;;;;;;;3.45;0.95;;;20.50;38.70;;;;;;5035263;28;20087;-53
2021/04/27 07:30:21;;;;;;;4.00;0.75;;;20.50;38.70;;;;;;5034790;28;20049;-54
2021/04/27 07:32:47;;;;;;;2.17;0.88;;;20.50;38.70;;;;;;5035491;28;20021;-56
2021/04/27 07:35:13;;;;;;;0.93;0.70;;;20.50;38.70;;;;;;5034959;28;20033;-59
2021/04/27 07:37:38;;;;;;;1.33;0.50;;;20.50;38.70;;;;;;5035107;28;20083;-54
2021/04/27 07:40:06;;;;;;;0.88;0.80;;;20.50;38.60;;;;;;5035222;28;20340;-56
2021/04/27 07:42:31;;;;;;;2.42;0.50;;;20.60;38.70;;;;;;5035045;28;20356;-58
2021/04/27 07:44:57;;;;;;;1.27;0.70;;;20.60;38.70;;;;;;5035167;28;20017;-56
2021/04/27 07:47:22;;;;;;;1.00;0.55;;;20.60;38.60;;;;;;5034995;28;20429;-56
2021/04/27 07:49:48;;;;;;;4.32;0.65;;;20.60;38.60;;;;;;5035125;28;20413;-56
2021/04/27 07:52:14;;;;;;;0.65;0.43;;;20.60;38.60;;;;;;5034766;28;20030;-54
2021/04/27 07:54:39;;;;;;;0.98;0.75;;;20.60;38.60;;;;;;5034930;28;20095;-51
2021/04/27 07:57:05;;;;;;;1.92;0.63;;;20.60;38.50;;;;;;5035115;28;20076;-57
2021/04/27 07:59:31;;;;;;;0.70;0.70;;;20.70;38.60;;;;;;5034495;28;20444;-56
2021/04/27 08:01:56;;;;;;;1.20;0.80;;;20.60;38.40;;;;;;5034824;28;20032;-52
2021/04/27 08:04:22;;;;;;;2.15;1.00;;;20.70;38.40;;;;;;5034802;28;20026;-53
2021/04/27 08:06:47;;;;;;;2.50;0.80;;;20.70;38.10;;;;;;5034695;28;20040;-49
2021/04/27 08:09:13;;;;;;;1.83;0.77;;;20.70;38.00;;;;;;5034660;28;20139;-51
2021/04/27 08:11:40;;;;;;;1.42;0.80;;;20.70;38.70;;;;;;5035032;28;20053;-54
2021/04/27 08:14:07;;;;;;;2.35;0.88;;;20.70;37.90;;;;;;5034616;28;20029;-56
2021/04/27 08:16:33;;;;;;;2.13;0.95;;;20.70;38.00;;;;;;5035030;28;20364;-57
2021/04/27 08:18:58;;;;;;;2.58;1.00;;;20.70;38.00;;;;;;5034385;28;20098;-55
2021/04/27 08:21:24;;;;;;;1.45;0.80;;;20.80;38.00;;;;;;5034654;28;20364;-58
2021/04/27 08:23:50;;;;;;;2.15;0.85;;;20.80;38.00;;;;;;5034863;28;20025;-56
2021/04/27 08:26:16;;;;;;;3.28;0.65;;;20.80;38.00;;;;;;5035511;28;20039;-56
2021/04/27 08:28:42;;;;;;;1.45;0.70;;;20.80;37.90;;;;;;5038287;28;20029;-56
2021/04/27 08:31:08;;;;;;;0.85;0.65;;;20.80;37.90;;;;;;5037967;28;20045;-54
2021/04/27 08:33:34;;;;;;;1.33;0.73;;;20.90;37.80;;;;;;5038042;28;20025;-56
2021/04/27 08:36:00;;;;;;;4.07;1.50;;;20.90;37.80;;;;;;5037918;28;20364;-53
2021/04/27 08:38:26;;;;;;;2.63;1.05;;;20.90;37.60;;;;;;5038313;28;20031;-56
2021/04/27 08:40:51;;;;;;;1.20;0.52;;;20.90;37.70;;;;;;5038553;28;20459;-54
2021/04/27 08:43:17;;;;;;;2.50;0.90;;;20.90;37.70;;;;;;5038290;28;20399;-57
2021/04/27 08:45:43;;;;;;;2.22;1.20;;;20.90;37.60;;;;;;5038166;28;20025;-56
2021/04/27 08:48:12;;;;;;;1.85;0.85;;;20.90;37.50;;;;;;5038090;28;20044;-56
2021/04/27 08:50:39;;;;;;;0.77;0.65;;;20.90;37.40;;;;;;5037855;28;20421;-52
2021/04/27 08:53:06;;;;;;;3.25;0.70;;;21.00;37.50;;;;;;5038329;28;20022;-52
2021/04/27 08:55:32;;;;;;;2.97;0.90;;;21.00;37.40;;;;;;5037937;28;20033;-52
2021/04/27 08:57:57;;;;;;;2.35;1.05;;;21.00;37.30;;;;;;5037951;28;20353;-55
2021/04/27 09:00:24;;;;;;;1.83;0.90;;;21.00;37.10;;;;;;5037429;28;20444;-55
2021/04/27 09:02:58;;;;;;;0.65;0.65;;;21.00;37.10;;;;;;5037860;28;20040;-53
2021/04/27 09:05:26;;;;;;;4.22;0.68;;;21.10;37.20;;;;;;5037936;28;20029;-54
2021/04/27 09:07:53;;;;;;;3.55;0.95;;;21.10;37.10;;;;;;5037741;28;20028;-56
2021/04/27 09:10:21;;;;;;;1.65;0.70;;;21.10;37.20;;;;;;5037644;28;20025;-55
2021/04/27 09:12:50;;;;;;;12.75;1.10;;;21.10;37.30;;;;;;5037528;28;20143;-52
2021/04/27 09:15:25;;;;;;;3.10;0.70;;;21.10;37.30;;;;;;5037515;28;20055;-57
2021/04/27 09:17:51;;;;;;;3.15;0.60;;;21.20;37.40;;;;;;5037775;28;20341;-51
2021/04/27 09:20:16;;;;;;;1.40;0.90;;;21.20;37.40;;;;;;5037824;28;20025;-53
2021/04/27 09:22:42;;;;;;;4.20;0.90;;;21.20;37.30;;;;;;5037593;28;20025;-52
2021/04/27 09:25:09;;;;;;;1.40;0.60;;;21.20;37.30;;;;;;5037203;28;20440;-56
2021/04/27 09:27:47;;;;;;;2.50;0.77;;;21.30;37.40;;;;;;5037399;28;20101;-55
2021/04/27 09:30:19;;;;;;;2.35;1.08;;;21.30;37.20;;;;;;5037552;28;20047;-54
2021/04/27 09:33:04;;;;;;;0.70;0.70;;;21.30;37.20;;;;;;5037286;28;20037;-54
2021/04/27 09:35:45;;;;;;;1.88;0.60;;;21.30;37.20;;;;;;5037161;28;20494;-55
2021/04/27 09:38:13;;;;;;;2.08;0.60;;;21.40;37.30;;;;;;5035852;28;20064;-57
2021/04/27 09:40:55;;;;;;;2.28;0.80;;;21.40;37.20;;;;;;5037540;28;20029;-57
2021/04/27 09:43:29;;;;;;;5.07;0.68;;;21.40;37.30;;;;;;5037581;28;20068;-57
2021/04/27 09:45:57;;;;;;;1.58;0.50;;;21.40;37.30;;;;;;5036951;28;20057;-52
2021/04/27 09:48:43;;;;;;;1.52;0.50;;;21.40;37.30;;;;;;5036811;28;20420;-56
2021/04/27 09:51:12;;;;;;;1.75;0.63;;;21.50;37.30;;;;;;5036497;28;20437;-53
2021/04/27 09:53:54;;;;;;;1.58;0.73;;;21.50;37.30;;;;;;5036792;28;20052;-57
2021/04/27 09:56:47;;;;;;;1.77;0.60;;;21.50;37.10;;;;;;5036498;28;20060;-57
2021/04/27 09:59:16;;;;;;;2.28;0.70;;;21.50;37.10;;;;;;5036847;28;20057;-56
2021/04/27 10:01:47;;;;;;;1.30;0.50;;;21.60;37.20;;;;;;5036914;28;20407;-55
2021/04/27 10:04:15;;;;;;;2.85;0.90;;;21.60;37.00;;;;;;5036393;28;20441;-62
2021/04/27 10:06:45;;;;;;;1.20;0.70;;;21.60;36.90;;;;;;5036535;28;20029;-53
2021/04/27 10:09:11;;;;;;;2.10;0.57;;;21.60;37.00;;;;;;5036593;28;20084;-53
2021/04/27 10:11:37;;;;;;;1.33;0.40;;;21.70;37.10;;;;;;5037126;28;20021;-51
2021/04/27 10:14:05;;;;;;;0.60;0.50;;;21.60;37.70;;;;;;5036872;28;20025;-53
2021/04/27 10:16:32;;;;;;;0.95;0.30;;;21.70;37.10;;;;;;5036669;28;20117;-55
2021/04/27 10:18:58;;;;;;;2.65;0.73;;;21.70;37.10;;;;;;5036401;28;20018;-52
2021/04/27 10:21:24;;;;;;;1.63;0.60;;;21.70;37.10;;;;;;5018535;28;20467;-52
2021/04/27 10:24:00;;;;;;;2.55;0.60;;;21.80;37.20;;;;;;5036368;28;20033;-54
2021/04/27 10:26:27;;;;;;;0.95;0.80;;;21.80;37.20;;;;;;5036057;28;20122;-55
2021/04/27 10:29:08;;;;;;;0.88;0.50;;;21.80;37.20;;;;;;5035764;28;20425;-52
2021/04/27 10:31:39;;;;;;;1.88;0.30;;;21.80;37.20;;;;;;5036418;28;20443;-54
2021/04/27 10:34:11;;;;;;;1.20;0.40;;;21.80;37.20;;;;;;5036291;28;20348;-53
2021/04/27 10:36:58;;;;;;;0.60;0.40;;;21.80;37.20;;;;;;5036464;28;20505;-54
2021/04/27 10:39:43;;;;;;;0.82;0.50;;;21.80;37.20;;;;;;5035461;28;20432;-62
2021/04/27 10:42:21;;;;;;;0.95;0.60;;;21.90;37.20;;;;;;5035727;28;20075;-54
2021/04/27 10:44:59;;;;;;;1.35;0.70;;;21.80;36.80;;;;;;5035597;28;20356;-56
2021/04/27 10:47:26;;;;;;;1.63;0.77;;;21.90;36.80;;;;;;5035597;28;20040;-57
2021/04/27 10:49:54;;;;;;;1.80;1.10;;;21.90;37.00;;;;;;5035380;28;20044;-53
2021/04/27 10:52:28;;;;;;;2.13;1.00;;;21.90;36.40;;;;;;5035837;28;20030;-53
2021/04/27 10:55:30;;;;;;;1.92;0.90;;;21.90;36.10;;;;;;5035206;28;20459;-53
2021/04/27 10:58:27;;;;;;;1.05;0.60;;;21.80;36.40;;;;;;5019412;28;20025;-56
2021/04/27 11:00:52;;;;;;;5.50;0.63;;;21.90;36.80;;;;;;5034021;28;20100;-56
2021/04/27 11:03:24;;;;;;;0.70;0.43;;;21.90;37.00;;;;;;5035114;28;20479;-51
2021/04/27 11:06:05;;;;;;;1.48;0.52;;;21.90;37.20;;;;;;5036134;28;20113;-55
2021/04/27 11:08:50;;;;;;;1.55;0.77;;;21.90;37.30;;;;;;5035531;28;20440;-54
2021/04/27 11:11:22;;;;;;;1.02;0.57;;;21.90;37.30;;;;;;5035422;28;20022;-49
2021/04/27 11:13:49;;;;;;;0.77;0.60;;;21.90;36.80;;;;;;5035347;28;20021;-58
2021/04/27 11:16:42;;;;;;;1.52;1.00;;;21.90;36.90;;;;;;5035686;28;20076;-54
2021/04/27 11:19:31;;;;;;;2.65;1.17;;;21.90;35.70;;;;;;5031054;28;20033;-50
2021/04/27 11:22:21;;;;;;;1.10;0.98;;;21.90;35.00;;;;;;5034963;28;20087;-51
2021/04/27 11:24:48;;;;;;;3.75;0.90;;;21.90;35.10;;;;;;5034902;28;20470;-52
2021/04/27 11:27:25;;;;;;;2.03;0.80;;;21.80;35.00;;;;;;5034843;28;20341;-55
2021/04/27 11:30:00;;;;;;;1.52;0.70;;;21.80;35.20;;;;;;5035126;28;20046;-47
2021/04/27 11:32:27;;;;;;;4.85;1.42;;;21.80;36.00;;;;;;5034869;28;20101;-51
2021/04/27 11:35:11;;;;;;;2.65;0.98;;;21.80;36.30;;;;;;5035050;28;20021;-51
2021/04/27 11:37:38;;;;;;;;;;;21.80;36.40;;;;;;5035455;28;20451;-55
2021/04/27 11:40:28;;;;;;;5.32;1.00;;;21.80;35.90;;;;;;5035100;28;19905;-52
2021/04/27 11:42:58;;;;;;;2.47;0.70;;;21.80;35.90;;;;;;5034763;28;20100;-48
2021/04/27 11:45:27;;;;;;;1.17;0.77;;;21.90;36.40;;;;;;5034888;28;20340;-50
2021/04/27 11:47:53;;;;;;;5.63;1.50;;;21.80;36.10;;;;;;5035160;28;20022;-55
2021/04/27 11:50:27;;;;;;;4.78;2.15;;;21.70;33.20;;;;;;5034926;28;20087;-54
2021/04/27 11:53:15;;;;;;;4.00;1.88;;;21.40;33.10;;;;;;5034811;28;20032;-56
2021/04/27 11:55:52;;;;;;;10.90;3.80;;;21.20;33.40;;;;;;5034611;28;20026;-54
2021/04/27 11:58:28;;;;;;;9.88;3.97;;;21.00;34.40;;;;;;5034705;28;20021;-54
2021/04/27 12:00:55;;;;;;;17.75;5.07;;;20.80;35.30;;;;;;5034227;28;20024;-53
2021/04/27 12:03:26;;;;;;;23.83;5.53;;;20.70;35.90;;;;;;5034625;28;20076;-51
2021/04/27 12:05:55;;;;;;;11.20;4.35;;;20.70;37.40;;;;;;5034759;28;20072;-56
2021/04/27 12:08:24;;;;;;;14.15;4.45;;;20.80;37.10;;;;;;5034807;28;20448;-56
2021/04/27 12:11:22;;;;;;;12.50;3.80;;;20.90;36.70;;;;;;5034557;28;20112;-55
2021/04/27 12:13:56;;;;;;;8.68;3.20;;;21.00;35.80;;;;;;5034669;28;20013;-50
2021/04/27 12:16:32;;;;;;;3.45;1.85;;;21.10;35.40;;;;;;5034432;28;20037;-53
2021/04/27 12:19:16;;;;;;;6.93;2.72;;;21.10;33.80;;;;;;5034932;28;20132;-53
2021/04/27 12:21:50;;;;;;;4.20;1.63;;;21.20;33.10;;;;;;5016952;28;20080;-53
2021/04/27 12:24:29;;;;;;;2.30;1.45;;;21.20;32.30;;;;;;5034273;28;20100;-51
2021/04/27 12:26:56;;;;;;;2.83;1.67;;;21.20;31.60;;;;;;5034496;28;20069;-53
2021/04/27 12:29:38;;;;;;;4.25;1.30;;;21.20;31.10;;;;;;5034150;28;20025;-57
2021/04/27 12:32:15;;;;;;;3.08;1.08;;;21.20;30.80;;;;;;5034436;28;20048;-56
2021/04/27 12:35:02;;;;;;;1.98;1.20;;;21.20;30.60;;;;;;5034446;28;20083;-52
2021/04/27 12:37:30;;;;;;;4.38;1.38;;;21.20;30.40;;;;;;5034093;28;20469;-53
2021/04/27 12:40:01;;;;;;;1.50;0.95;;;21.20;30.20;;;;;;5034775;28;20060;-52
2021/04/27 12:42:29;;;;;;;1.35;0.95;;;21.20;30.20;;;;;;5034191;28;20029;-51
2021/04/27 12:45:05;;;;;;;2.53;1.40;;;21.20;30.10;;;;;;5034103;28;20041;-52
2021/04/27 12:47:33;;;;;;;2.22;1.30;;;21.20;30.10;;;;;;5034205;28;20174;-52
2021/04/27 12:50:08;;;;;;;3.38;1.48;;;21.20;30.00;;;;;;5034567;28;20113;-52
2021/04/27 12:52:41;;;;;;;2.35;1.42;;;21.20;30.00;;;;;;5034404;28;20021;-51
2021/04/27 12:55:17;;;;;;;1.40;1.20;;;21.20;29.80;;;;;;5034491;28;20021;-53
2021/04/27 12:57:42;;;;;;;3.42;1.55;;;21.20;29.80;;;;;;5034437;28;20310;-55